sensor_id;sensor_type;location;lat;lon;timestamp;P1;durP1;ratioP1;P2;durP2;ratioP2
17496;SDS011;62150;43.582;1.456;2022-11-27T07:09:30;5.83;;;2.20;;
17496;SDS011;62150;43.582;1.456;2022-11-27T07:11:57;4.70;;;2.20;;
17496;SDS011;62150;43.582;1.456;2022-11-27T07:14:25;5.03;;;2.10;;
17496;SDS011;62150;43.582;1.456;2022-11-27T07:16:52;3.87;;;1.83;;
17496;SDS011;62150;43.582;1.456;2022-11-27T07:19:20;5.07;;;2.20;;
17496;SDS011;62150;43.582;1.456;2022-11-27T07:21:56;4.23;;;2.00;;
17496;SDS011;62150;43.582;1.456;2022-11-27T07:24:23;4.00;;;2.07;;
17496;SDS011;62150;43.582;1.456;2022-11-27T07:26:52;4.57;;;2.23;;
17496;SDS011;62150;43.582;1.456;2022-11-27T07:29:20;3.23;;;2.00;;
17496;SDS011;62150;43.582;1.456;2022-11-27T07:31:47;4.27;;;2.00;;
17496;SDS011;62150;43.582;1.456;2022-11-27T07:34:16;3.47;;;2.10;;
17496;SDS011;62150;43.582;1.456;2022-11-27T07:36:43;4.17;;;2.10;;
17496;SDS011;62150;43.582;1.456;2022-11-27T07:39:11;5.50;;;2.00;;
17496;SDS011;62150;43.582;1.456;2022-11-27T07:41:38;4.57;;;1.90;;
17496;SDS011;62150;43.582;1.456;2022-11-27T07:44:07;4.50;;;2.10;;
17496;SDS011;62150;43.582;1.456;2022-11-27T07:46:35;4.27;;;2.07;;
17496;SDS011;62150;43.582;1.456;2022-11-27T07:49:03;3.77;;;2.00;;
17496;SDS011;62150;43.582;1.456;2022-11-27T07:51:30;4.73;;;2.20;;
17496;SDS011;62150;43.582;1.456;2022-11-27T07:53:58;5.00;;;2.27;;
17496;SDS011;62150;43.582;1.456;2022-11-27T07:56:25;4.70;;;2.00;;
17496;SDS011;62150;43.582;1.456;2022-11-27T07:58:54;4.07;;;2.00;;
17496;SDS011;62150;43.582;1.456;2022-11-27T08:01:24;5.33;;;2.07;;
17496;SDS011;62150;43.582;1.456;2022-11-27T08:03:51;4.40;;;2.10;;
17496;SDS011;62150;43.582;1.456;2022-11-27T08:06:19;5.03;;;2.10;;
17496;SDS011;62150;43.582;1.456;2022-11-27T08:08:48;4.87;;;2.30;;
17496;SDS011;62150;43.582;1.456;2022-11-27T08:11:18;5.47;;;2.30;;
17496;SDS011;62150;43.582;1.456;2022-11-27T08:13:47;4.43;;;2.10;;
17496;SDS011;62150;43.582;1.456;2022-11-27T08:16:15;4.60;;;2.30;;
17496;SDS011;62150;43.582;1.456;2022-11-27T08:18:44;4.30;;;1.80;;
17496;SDS011;62150;43.582;1.456;2022-11-27T08:21:11;5.13;;;2.17;;
17496;SDS011;62150;43.582;1.456;2022-11-27T08:23:39;3.57;;;2.10;;
17496;SDS011;62150;43.582;1.456;2022-11-27T08:26:07;4.70;;;2.37;;
17496;SDS011;62150;43.582;1.456;2022-11-27T08:28:35;5.30;;;2.20;;
17496;SDS011;62150;43.582;1.456;2022-11-27T08:31:04;6.83;;;2.40;;
17496;SDS011;62150;43.582;1.456;2022-11-27T08:33:33;4.87;;;2.30;;
17496;SDS011;62150;43.582;1.456;2022-11-27T08:36:02;4.27;;;2.13;;
17496;SDS011;62150;43.582;1.456;2022-11-27T08:38:30;3.63;;;2.10;;
17496;SDS011;62150;43.582;1.456;2022-11-27T08:40:59;5.10;;;2.03;;
17496;SDS011;62150;43.582;1.456;2022-11-27T08:43:28;6.13;;;2.40;;
17496;SDS011;62150;43.582;1.456;2022-11-27T08:45:56;4.57;;;2.50;;
17496;SDS011;62150;43.582;1.456;2022-11-27T08:48:24;5.70;;;2.20;;
17496;SDS011;62150;43.582;1.456;2022-11-27T08:50:52;7.87;;;2.50;;
17496;SDS011;62150;43.582;1.456;2022-11-27T08:53:21;6.73;;;2.47;;
17496;SDS011;62150;43.582;1.456;2022-11-27T08:55:49;4.67;;;2.17;;
17496;SDS011;62150;43.582;1.456;2022-11-27T08:58:17;6.47;;;2.40;;
17496;SDS011;62150;43.582;1.456;2022-11-27T09:00:44;5.17;;;2.33;;
17496;SDS011;62150;43.582;1.456;2022-11-27T09:03:12;5.00;;;2.43;;
17496;SDS011;62150;43.582;1.456;2022-11-27T09:05:40;6.20;;;2.57;;
17496;SDS011;62150;43.582;1.456;2022-11-27T09:08:09;5.60;;;2.40;;
17496;SDS011;62150;43.582;1.456;2022-11-27T09:10:41;5.87;;;2.70;;
17496;SDS011;62150;43.582;1.456;2022-11-27T09:13:09;6.03;;;2.50;;
17496;SDS011;62150;43.582;1.456;2022-11-27T09:15:37;7.07;;;2.80;;
17496;SDS011;62150;43.582;1.456;2022-11-27T09:18:05;6.93;;;2.73;;
17496;SDS011;62150;43.582;1.456;2022-11-27T09:20:32;5.70;;;2.47;;
17496;SDS011;62150;43.582;1.456;2022-11-27T09:23:00;5.00;;;2.40;;
17496;SDS011;62150;43.582;1.456;2022-11-27T09:25:27;6.40;;;2.73;;
17496;SDS011;62150;43.582;1.456;2022-11-27T09:27:56;6.53;;;2.57;;
17496;SDS011;62150;43.582;1.456;2022-11-27T09:30:24;6.20;;;2.77;;
17496;SDS011;62150;43.582;1.456;2022-11-27T09:32:52;7.07;;;2.70;;
17496;SDS011;62150;43.582;1.456;2022-11-27T09:35:19;5.63;;;2.60;;
17496;SDS011;62150;43.582;1.456;2022-11-27T09:37:47;5.93;;;2.60;;
17496;SDS011;62150;43.582;1.456;2022-11-27T09:40:14;4.90;;;2.20;;
17496;SDS011;62150;43.582;1.456;2022-11-27T09:42:45;5.07;;;2.60;;
17496;SDS011;62150;43.582;1.456;2022-11-27T09:45:17;6.87;;;2.50;;
17496;SDS011;62150;43.582;1.456;2022-11-27T09:47:46;5.60;;;2.70;;
17496;SDS011;62150;43.582;1.456;2022-11-27T09:50:19;7.63;;;2.80;;
17496;SDS011;62150;43.582;1.456;2022-11-27T09:52:50;5.70;;;2.50;;
17496;SDS011;62150;43.582;1.456;2022-11-27T09:55:20;7.80;;;2.60;;
17496;SDS011;62150;43.582;1.456;2022-11-27T09:57:54;6.10;;;2.70;;
17496;SDS011;62150;43.582;1.456;2022-11-27T10:00:30;7.60;;;2.57;;
17496;SDS011;62150;43.582;1.456;2022-11-27T10:02:57;6.00;;;2.70;;
17496;SDS011;62150;43.582;1.456;2022-11-27T10:05:27;7.17;;;2.80;;
17496;SDS011;62150;43.582;1.456;2022-11-27T10:08:12;5.13;;;2.20;;
17496;SDS011;62150;43.582;1.456;2022-11-27T10:10:53;6.37;;;2.70;;
17496;SDS011;62150;43.582;1.456;2022-11-27T10:13:39;7.20;;;2.93;;
17496;SDS011;62150;43.582;1.456;2022-11-27T10:16:21;6.97;;;2.70;;
17496;SDS011;62150;43.582;1.456;2022-11-27T10:18:56;6.13;;;2.80;;
17496;SDS011;62150;43.582;1.456;2022-11-27T10:21:34;6.33;;;2.73;;
17496;SDS011;62150;43.582;1.456;2022-11-27T10:24:09;7.27;;;2.70;;
17496;SDS011;62150;43.582;1.456;2022-11-27T10:26:45;6.27;;;2.90;;
17496;SDS011;62150;43.582;1.456;2022-11-27T10:29:17;6.73;;;2.93;;
17496;SDS011;62150;43.582;1.456;2022-11-27T10:32:04;7.90;;;3.20;;
17496;SDS011;62150;43.582;1.456;2022-11-27T10:34:39;6.57;;;2.70;;
17496;SDS011;62150;43.582;1.456;2022-11-27T10:37:12;7.53;;;3.07;;
17496;SDS011;62150;43.582;1.456;2022-11-27T10:39:44;7.70;;;3.07;;
17496;SDS011;62150;43.582;1.456;2022-11-27T10:42:17;6.67;;;2.90;;
17496;SDS011;62150;43.582;1.456;2022-11-27T10:44:52;5.37;;;2.80;;
17496;SDS011;62150;43.582;1.456;2022-11-27T10:47:26;5.90;;;2.83;;
17496;SDS011;62150;43.582;1.456;2022-11-27T10:49:55;7.37;;;3.00;;
17496;SDS011;62150;43.582;1.456;2022-11-27T10:52:23;8.43;;;2.97;;
17496;SDS011;62150;43.582;1.456;2022-11-27T10:54:54;7.63;;;3.20;;
17496;SDS011;62150;43.582;1.456;2022-11-27T10:57:28;8.80;;;3.17;;
17496;SDS011;62150;43.582;1.456;2022-11-27T11:00:18;7.73;;;3.00;;
17496;SDS011;62150;43.582;1.456;2022-11-27T11:02:57;7.43;;;2.93;;
17496;SDS011;62150;43.582;1.456;2022-11-27T11:05:26;5.77;;;2.90;;
17496;SDS011;62150;43.582;1.456;2022-11-27T11:07:58;8.17;;;3.10;;
17496;SDS011;62150;43.582;1.456;2022-11-27T11:10:30;6.67;;;2.90;;
17496;SDS011;62150;43.582;1.456;2022-11-27T11:13:08;5.47;;;3.00;;
17496;SDS011;62150;43.582;1.456;2022-11-27T11:15:48;6.47;;;2.93;;
17496;SDS011;62150;43.582;1.456;2022-11-27T11:18:20;7.80;;;3.27;;
17496;SDS011;62150;43.582;1.456;2022-11-27T11:20:50;8.07;;;3.63;;
17496;SDS011;62150;43.582;1.456;2022-11-27T11:23:25;7.73;;;3.30;;
17496;SDS011;62150;43.582;1.456;2022-11-27T11:25:57;6.70;;;3.57;;
17496;SDS011;62150;43.582;1.456;2022-11-27T11:28:28;7.43;;;3.07;;
17496;SDS011;62150;43.582;1.456;2022-11-27T11:30:58;8.53;;;3.37;;
17496;SDS011;62150;43.582;1.456;2022-11-27T11:33:32;7.70;;;3.30;;
17496;SDS011;62150;43.582;1.456;2022-11-27T11:36:07;6.90;;;3.00;;
17496;SDS011;62150;43.582;1.456;2022-11-27T11:38:36;8.27;;;3.43;;
17496;SDS011;62150;43.582;1.456;2022-11-27T11:41:07;7.40;;;3.30;;
17496;SDS011;62150;43.582;1.456;2022-11-27T11:43:36;8.83;;;3.40;;
17496;SDS011;62150;43.582;1.456;2022-11-27T11:46:06;8.07;;;3.47;;
17496;SDS011;62150;43.582;1.456;2022-11-27T11:48:55;7.83;;;3.33;;
17496;SDS011;62150;43.582;1.456;2022-11-27T11:57:27;7.53;;;3.27;;
17496;SDS011;62150;43.582;1.456;2022-11-27T12:00:17;9.67;;;3.17;;
17496;SDS011;62150;43.582;1.456;2022-11-27T12:05:44;7.17;;;3.27;;
17496;SDS011;62150;43.582;1.456;2022-11-27T12:08:26;8.53;;;3.63;;
17496;SDS011;62150;43.582;1.456;2022-11-27T12:11:07;9.73;;;3.80;;
17496;SDS011;62150;43.582;1.456;2022-11-27T12:13:42;7.93;;;3.20;;
17496;SDS011;62150;43.582;1.456;2022-11-27T12:16:21;6.43;;;3.10;;
17496;SDS011;62150;43.582;1.456;2022-11-27T12:19:03;7.17;;;3.10;;
17496;SDS011;62150;43.582;1.456;2022-11-27T12:21:53;10.60;;;4.80;;
17496;SDS011;62150;43.582;1.456;2022-11-27T12:24:34;10.47;;;4.00;;
17496;SDS011;62150;43.582;1.456;2022-11-27T12:27:13;8.63;;;4.03;;
17496;SDS011;62150;43.582;1.456;2022-11-27T12:29:54;9.40;;;3.60;;
17496;SDS011;62150;43.582;1.456;2022-11-27T12:35:32;8.00;;;3.73;;
17496;SDS011;62150;43.582;1.456;2022-11-27T12:38:14;7.73;;;3.50;;
17496;SDS011;62150;43.582;1.456;2022-11-27T12:41:14;10.30;;;3.93;;
17496;SDS011;62150;43.582;1.456;2022-11-27T12:43:52;9.43;;;3.80;;
17496;SDS011;62150;43.582;1.456;2022-11-27T12:46:25;9.20;;;3.70;;
17496;SDS011;62150;43.582;1.456;2022-11-27T12:49:02;8.47;;;3.67;;
17496;SDS011;62150;43.582;1.456;2022-11-27T12:51:38;8.83;;;3.50;;
17496;SDS011;62150;43.582;1.456;2022-11-27T12:54:14;8.53;;;3.70;;
17496;SDS011;62150;43.582;1.456;2022-11-27T12:56:46;7.07;;;3.30;;
17496;SDS011;62150;43.582;1.456;2022-11-27T12:59:17;8.63;;;3.40;;
17496;SDS011;62150;43.582;1.456;2022-11-27T13:01:51;6.53;;;3.40;;
17496;SDS011;62150;43.582;1.456;2022-11-27T13:04:25;8.60;;;3.37;;
17496;SDS011;62150;43.582;1.456;2022-11-27T13:06:58;7.47;;;3.40;;
17496;SDS011;62150;43.582;1.456;2022-11-27T13:09:35;8.93;;;3.47;;
17496;SDS011;62150;43.582;1.456;2022-11-27T13:12:12;7.07;;;3.40;;
17496;SDS011;62150;43.582;1.456;2022-11-27T13:14:48;8.07;;;3.20;;
17496;SDS011;62150;43.582;1.456;2022-11-27T13:17:21;7.33;;;3.40;;
17496;SDS011;62150;43.582;1.456;2022-11-27T13:19:54;8.83;;;3.33;;
17496;SDS011;62150;43.582;1.456;2022-11-27T13:22:25;8.33;;;3.70;;
17496;SDS011;62150;43.582;1.456;2022-11-27T13:24:58;10.93;;;4.20;;
17496;SDS011;62150;43.582;1.456;2022-11-27T13:27:27;8.23;;;3.80;;
17496;SDS011;62150;43.582;1.456;2022-11-27T13:29:59;8.77;;;3.60;;
17496;SDS011;62150;43.582;1.456;2022-11-27T13:32:29;7.03;;;3.20;;
17496;SDS011;62150;43.582;1.456;2022-11-27T13:35:01;6.90;;;3.50;;
17496;SDS011;62150;43.582;1.456;2022-11-27T13:37:32;9.20;;;3.60;;
17496;SDS011;62150;43.582;1.456;2022-11-27T13:40:05;7.10;;;3.53;;
17496;SDS011;62150;43.582;1.456;2022-11-27T13:42:44;7.83;;;3.63;;
17496;SDS011;62150;43.582;1.456;2022-11-27T13:45:23;7.87;;;3.60;;
17496;SDS011;62150;43.582;1.456;2022-11-27T13:47:54;8.00;;;3.13;;
17496;SDS011;62150;43.582;1.456;2022-11-27T13:50:24;7.33;;;3.30;;
17496;SDS011;62150;43.582;1.456;2022-11-27T13:52:53;7.03;;;3.30;;
17496;SDS011;62150;43.582;1.456;2022-11-27T13:55:26;6.60;;;3.00;;
17496;SDS011;62150;43.582;1.456;2022-11-27T13:57:55;7.13;;;2.93;;
17496;SDS011;62150;43.582;1.456;2022-11-27T14:00:32;7.53;;;3.10;;
17496;SDS011;62150;43.582;1.456;2022-11-27T14:03:01;7.07;;;3.00;;
17496;SDS011;62150;43.582;1.456;2022-11-27T14:05:34;8.60;;;3.17;;
17496;SDS011;62150;43.582;1.456;2022-11-27T14:08:13;6.17;;;2.80;;
17496;SDS011;62150;43.582;1.456;2022-11-27T14:10:49;7.10;;;2.90;;
17496;SDS011;62150;43.582;1.456;2022-11-27T14:13:19;7.93;;;3.10;;
17496;SDS011;62150;43.582;1.456;2022-11-27T14:15:56;8.20;;;2.90;;
17496;SDS011;62150;43.582;1.456;2022-11-27T14:18:27;7.83;;;2.93;;
17496;SDS011;62150;43.582;1.456;2022-11-27T14:20:57;6.87;;;3.07;;
17496;SDS011;62150;43.582;1.456;2022-11-27T14:23:28;7.60;;;2.80;;
17496;SDS011;62150;43.582;1.456;2022-11-27T14:26:02;7.97;;;2.80;;
17496;SDS011;62150;43.582;1.456;2022-11-27T14:28:33;5.97;;;3.00;;
17496;SDS011;62150;43.582;1.456;2022-11-27T14:31:02;4.60;;;2.77;;
17496;SDS011;62150;43.582;1.456;2022-11-27T14:33:31;7.43;;;3.00;;
17496;SDS011;62150;43.582;1.456;2022-11-27T14:36:01;8.73;;;3.10;;
17496;SDS011;62150;43.582;1.456;2022-11-27T14:38:30;5.97;;;2.60;;
17496;SDS011;62150;43.582;1.456;2022-11-27T14:41:10;7.80;;;3.20;;
17496;SDS011;62150;43.582;1.456;2022-11-27T14:43:40;5.57;;;2.97;;
17496;SDS011;62150;43.582;1.456;2022-11-27T14:46:11;7.80;;;3.10;;
17496;SDS011;62150;43.582;1.456;2022-11-27T14:48:43;7.87;;;2.83;;
17496;SDS011;62150;43.582;1.456;2022-11-27T14:51:13;8.60;;;3.13;;
17496;SDS011;62150;43.582;1.456;2022-11-27T14:53:43;9.00;;;3.50;;
17496;SDS011;62150;43.582;1.456;2022-11-27T14:56:13;8.80;;;3.57;;
17496;SDS011;62150;43.582;1.456;2022-11-27T14:58:45;9.27;;;3.77;;
17496;SDS011;62150;43.582;1.456;2022-11-27T15:01:20;9.77;;;3.40;;
17496;SDS011;62150;43.582;1.456;2022-11-27T15:03:54;7.97;;;3.50;;
17496;SDS011;62150;43.582;1.456;2022-11-27T15:06:22;10.43;;;3.53;;
17496;SDS011;62150;43.582;1.456;2022-11-27T15:08:52;9.13;;;3.80;;
17496;SDS011;62150;43.582;1.456;2022-11-27T15:11:22;9.70;;;3.87;;
17496;SDS011;62150;43.582;1.456;2022-11-27T15:13:51;10.30;;;3.73;;
17496;SDS011;62150;43.582;1.456;2022-11-27T15:16:21;9.60;;;3.80;;
17496;SDS011;62150;43.582;1.456;2022-11-27T15:18:51;8.83;;;3.77;;
17496;SDS011;62150;43.582;1.456;2022-11-27T15:21:21;10.13;;;4.20;;
17496;SDS011;62150;43.582;1.456;2022-11-27T15:23:51;10.40;;;4.10;;
17496;SDS011;62150;43.582;1.456;2022-11-27T15:26:35;9.60;;;4.40;;
17496;SDS011;62150;43.582;1.456;2022-11-27T15:31:55;11.73;;;4.93;;
17496;SDS011;62150;43.582;1.456;2022-11-27T15:34:23;10.87;;;4.83;;
17496;SDS011;62150;43.582;1.456;2022-11-27T15:36:51;12.13;;;4.97;;
17496;SDS011;62150;43.582;1.456;2022-11-27T15:39:22;12.07;;;4.37;;
17496;SDS011;62150;43.582;1.456;2022-11-27T15:41:53;9.73;;;4.03;;
17496;SDS011;62150;43.582;1.456;2022-11-27T15:44:22;10.97;;;4.53;;
17496;SDS011;62150;43.582;1.456;2022-11-27T15:46:51;10.37;;;4.37;;
17496;SDS011;62150;43.582;1.456;2022-11-27T15:49:21;11.97;;;4.57;;
17496;SDS011;62150;43.582;1.456;2022-11-27T15:51:49;12.87;;;5.23;;
17496;SDS011;62150;43.582;1.456;2022-11-27T15:54:17;13.67;;;5.00;;
17496;SDS011;62150;43.582;1.456;2022-11-27T15:56:44;11.90;;;4.90;;
17496;SDS011;62150;43.582;1.456;2022-11-27T15:59:14;11.20;;;4.60;;
17496;SDS011;62150;43.582;1.456;2022-11-27T16:01:44;10.03;;;3.93;;
17496;SDS011;62150;43.582;1.456;2022-11-27T16:04:12;9.80;;;3.77;;
17496;SDS011;62150;43.582;1.456;2022-11-27T16:06:39;10.40;;;3.63;;
17496;SDS011;62150;43.582;1.456;2022-11-27T16:09:07;7.90;;;3.50;;
17496;SDS011;62150;43.582;1.456;2022-11-27T16:11:34;9.83;;;4.03;;
17496;SDS011;62150;43.582;1.456;2022-11-27T16:14:02;11.63;;;4.40;;
17496;SDS011;62150;43.582;1.456;2022-11-27T16:16:31;10.20;;;4.07;;
17496;SDS011;62150;43.582;1.456;2022-11-27T16:18:59;7.87;;;3.53;;
17496;SDS011;62150;43.582;1.456;2022-11-27T16:21:29;11.03;;;4.30;;
17496;SDS011;62150;43.582;1.456;2022-11-27T16:23:59;11.33;;;4.40;;
17496;SDS011;62150;43.582;1.456;2022-11-27T16:26:28;8.67;;;3.70;;
17496;SDS011;62150;43.582;1.456;2022-11-27T16:28:56;10.83;;;4.00;;
17496;SDS011;62150;43.582;1.456;2022-11-27T16:31:25;9.07;;;4.20;;
17496;SDS011;62150;43.582;1.456;2022-11-27T16:33:54;9.50;;;5.00;;
17496;SDS011;62150;43.582;1.456;2022-11-27T16:36:22;10.37;;;5.13;;
17496;SDS011;62150;43.582;1.456;2022-11-27T16:38:50;15.83;;;6.93;;
17496;SDS011;62150;43.582;1.456;2022-11-27T16:41:18;11.70;;;5.77;;
17496;SDS011;62150;43.582;1.456;2022-11-27T16:43:47;11.63;;;5.20;;
17496;SDS011;62150;43.582;1.456;2022-11-27T16:46:17;12.20;;;5.23;;
17496;SDS011;62150;43.582;1.456;2022-11-27T16:48:46;10.17;;;5.20;;
17496;SDS011;62150;43.582;1.456;2022-11-27T16:51:17;10.80;;;5.43;;
17496;SDS011;62150;43.582;1.456;2022-11-27T16:53:47;10.30;;;4.83;;
17496;SDS011;62150;43.582;1.456;2022-11-27T16:56:17;11.77;;;5.60;;
17496;SDS011;62150;43.582;1.456;2022-11-27T16:58:46;11.93;;;5.83;;
17496;SDS011;62150;43.582;1.456;2022-11-27T17:01:15;12.03;;;5.23;;
17496;SDS011;62150;43.582;1.456;2022-11-27T17:03:44;11.33;;;5.57;;
17496;SDS011;62150;43.582;1.456;2022-11-27T17:06:13;9.43;;;4.43;;
17496;SDS011;62150;43.582;1.456;2022-11-27T17:08:43;11.57;;;6.10;;
17496;SDS011;62150;43.582;1.456;2022-11-27T17:11:11;10.13;;;5.47;;
17496;SDS011;62150;43.582;1.456;2022-11-27T17:13:41;11.73;;;5.70;;
17496;SDS011;62150;43.582;1.456;2022-11-27T17:16:09;12.33;;;6.60;;
17496;SDS011;62150;43.582;1.456;2022-11-27T17:18:37;11.67;;;6.20;;
17496;SDS011;62150;43.582;1.456;2022-11-27T17:21:07;10.97;;;5.60;;
17496;SDS011;62150;43.582;1.456;2022-11-27T17:23:35;11.43;;;5.30;;
17496;SDS011;62150;43.582;1.456;2022-11-27T17:26:08;9.77;;;5.10;;
17496;SDS011;62150;43.582;1.456;2022-11-27T17:28:37;12.10;;;5.37;;
17496;SDS011;62150;43.582;1.456;2022-11-27T17:31:07;11.33;;;5.57;;
17496;SDS011;62150;43.582;1.456;2022-11-27T17:33:35;10.80;;;5.33;;
17496;SDS011;62150;43.582;1.456;2022-11-27T17:36:03;12.87;;;6.77;;
17496;SDS011;62150;43.582;1.456;2022-11-27T17:38:31;11.00;;;5.83;;
17496;SDS011;62150;43.582;1.456;2022-11-27T17:40:59;10.47;;;5.57;;
17496;SDS011;62150;43.582;1.456;2022-11-27T17:43:29;10.53;;;5.27;;
17496;SDS011;62150;43.582;1.456;2022-11-27T17:45:57;13.20;;;6.80;;
17496;SDS011;62150;43.582;1.456;2022-11-27T17:48:28;12.30;;;6.03;;
17496;SDS011;62150;43.582;1.456;2022-11-27T17:50:56;12.00;;;5.80;;
17496;SDS011;62150;43.582;1.456;2022-11-27T17:53:25;11.17;;;5.80;;
17496;SDS011;62150;43.582;1.456;2022-11-27T17:55:53;12.33;;;6.37;;
17496;SDS011;62150;43.582;1.456;2022-11-27T17:58:21;9.20;;;4.87;;
17496;SDS011;62150;43.582;1.456;2022-11-27T18:00:50;10.03;;;4.60;;
17496;SDS011;62150;43.582;1.456;2022-11-27T18:03:18;10.87;;;4.70;;
17496;SDS011;62150;43.582;1.456;2022-11-27T18:05:47;8.90;;;4.03;;
17496;SDS011;62150;43.582;1.456;2022-11-27T18:08:14;8.13;;;3.53;;
17496;SDS011;62150;43.582;1.456;2022-11-27T18:10:42;8.93;;;3.80;;
17496;SDS011;62150;43.582;1.456;2022-11-27T18:13:09;8.03;;;3.73;;
17496;SDS011;62150;43.582;1.456;2022-11-27T18:15:37;8.00;;;3.40;;
17496;SDS011;62150;43.582;1.456;2022-11-27T18:18:07;8.10;;;3.33;;
17496;SDS011;62150;43.582;1.456;2022-11-27T18:20:35;8.23;;;3.87;;
17496;SDS011;62150;43.582;1.456;2022-11-27T18:23:03;9.47;;;3.47;;
17496;SDS011;62150;43.582;1.456;2022-11-27T18:25:30;9.67;;;3.80;;
17496;SDS011;62150;43.582;1.456;2022-11-27T18:27:58;10.93;;;4.07;;
17496;SDS011;62150;43.582;1.456;2022-11-27T18:30:27;9.27;;;4.57;;
17496;SDS011;62150;43.582;1.456;2022-11-27T18:32:55;11.50;;;4.53;;
17496;SDS011;62150;43.582;1.456;2022-11-27T18:35:24;10.37;;;3.77;;
17496;SDS011;62150;43.582;1.456;2022-11-27T18:37:51;9.10;;;3.50;;
17496;SDS011;62150;43.582;1.456;2022-11-27T18:40:19;10.90;;;3.93;;
17496;SDS011;62150;43.582;1.456;2022-11-27T18:42:47;7.67;;;3.40;;
17496;SDS011;62150;43.582;1.456;2022-11-27T18:45:14;10.77;;;4.03;;
17496;SDS011;62150;43.582;1.456;2022-11-27T18:47:42;10.30;;;4.20;;
17496;SDS011;62150;43.582;1.456;2022-11-27T18:50:10;12.63;;;5.00;;
17496;SDS011;62150;43.582;1.456;2022-11-27T18:52:39;11.93;;;4.80;;
17496;SDS011;62150;43.582;1.456;2022-11-27T18:55:06;10.53;;;4.23;;
17496;SDS011;62150;43.582;1.456;2022-11-27T18:57:34;11.47;;;4.43;;
17496;SDS011;62150;43.582;1.456;2022-11-27T19:00:02;11.30;;;4.50;;
17496;SDS011;62150;43.582;1.456;2022-11-27T19:02:31;10.53;;;4.50;;
17496;SDS011;62150;43.582;1.456;2022-11-27T19:04:58;11.23;;;5.13;;
17496;SDS011;62150;43.582;1.456;2022-11-27T19:07:26;10.83;;;4.67;;
17496;SDS011;62150;43.582;1.456;2022-11-27T19:09:55;13.33;;;6.57;;
17496;SDS011;62150;43.582;1.456;2022-11-27T19:12:22;12.13;;;4.77;;
17496;SDS011;62150;43.582;1.456;2022-11-27T19:14:50;12.40;;;5.73;;
17496;SDS011;62150;43.582;1.456;2022-11-27T19:17:17;10.13;;;4.70;;
17496;SDS011;62150;43.582;1.456;2022-11-27T19:19:47;10.37;;;5.43;;
17496;SDS011;62150;43.582;1.456;2022-11-27T19:22:14;11.53;;;4.17;;
17496;SDS011;62150;43.582;1.456;2022-11-27T19:24:44;11.33;;;4.67;;
17496;SDS011;62150;43.582;1.456;2022-11-27T19:27:13;10.83;;;4.33;;
17496;SDS011;62150;43.582;1.456;2022-11-27T19:29:40;10.90;;;4.40;;
17496;SDS011;62150;43.582;1.456;2022-11-27T19:32:08;10.87;;;4.63;;
17496;SDS011;62150;43.582;1.456;2022-11-27T19:34:35;9.03;;;3.90;;
17496;SDS011;62150;43.582;1.456;2022-11-27T19:37:03;9.70;;;3.90;;
17496;SDS011;62150;43.582;1.456;2022-11-27T19:39:31;7.77;;;3.60;;
17496;SDS011;62150;43.582;1.456;2022-11-27T19:41:58;7.70;;;3.70;;
17496;SDS011;62150;43.582;1.456;2022-11-27T19:44:27;8.57;;;3.97;;
17496;SDS011;62150;43.582;1.456;2022-11-27T19:46:55;9.73;;;4.00;;
17496;SDS011;62150;43.582;1.456;2022-11-27T19:49:22;9.77;;;4.43;;
17496;SDS011;62150;43.582;1.456;2022-11-27T19:51:50;11.57;;;4.50;;
17496;SDS011;62150;43.582;1.456;2022-11-27T19:54:18;9.40;;;3.97;;
17496;SDS011;62150;43.582;1.456;2022-11-27T19:56:46;9.33;;;4.47;;
17496;SDS011;62150;43.582;1.456;2022-11-27T19:59:13;9.97;;;4.80;;
17496;SDS011;62150;43.582;1.456;2022-11-27T20:01:42;10.93;;;4.60;;
17496;SDS011;62150;43.582;1.456;2022-11-27T20:04:10;9.50;;;4.40;;
17496;SDS011;62150;43.582;1.456;2022-11-27T20:06:39;10.40;;;4.10;;
17496;SDS011;62150;43.582;1.456;2022-11-27T20:09:07;8.77;;;3.83;;
17496;SDS011;62150;43.582;1.456;2022-11-27T20:11:37;9.27;;;3.60;;
17496;SDS011;62150;43.582;1.456;2022-11-27T20:14:05;9.63;;;4.10;;
17496;SDS011;62150;43.582;1.456;2022-11-27T20:16:33;8.70;;;4.30;;
17496;SDS011;62150;43.582;1.456;2022-11-27T20:19:03;10.03;;;4.57;;
17496;SDS011;62150;43.582;1.456;2022-11-27T20:21:31;10.97;;;5.27;;
17496;SDS011;62150;43.582;1.456;2022-11-27T20:24:00;10.80;;;5.23;;
17496;SDS011;62150;43.582;1.456;2022-11-27T20:26:28;11.10;;;5.17;;
17496;SDS011;62150;43.582;1.456;2022-11-27T20:28:56;11.87;;;5.97;;
17496;SDS011;62150;43.582;1.456;2022-11-27T20:31:25;11.40;;;5.27;;
17496;SDS011;62150;43.582;1.456;2022-11-27T20:33:55;10.50;;;5.20;;
17496;SDS011;62150;43.582;1.456;2022-11-27T20:36:27;11.40;;;4.73;;
17496;SDS011;62150;43.582;1.456;2022-11-27T20:38:56;12.33;;;4.57;;
17496;SDS011;62150;43.582;1.456;2022-11-27T20:41:25;11.93;;;4.83;;
17496;SDS011;62150;43.582;1.456;2022-11-27T20:43:53;10.33;;;5.20;;
17496;SDS011;62150;43.582;1.456;2022-11-27T20:46:22;11.33;;;5.20;;
17496;SDS011;62150;43.582;1.456;2022-11-27T20:48:51;11.73;;;5.53;;
17496;SDS011;62150;43.582;1.456;2022-11-27T20:51:21;11.60;;;5.63;;
17496;SDS011;62150;43.582;1.456;2022-11-27T20:53:57;11.73;;;5.27;;
17496;SDS011;62150;43.582;1.456;2022-11-27T20:56:27;11.27;;;5.17;;
17496;SDS011;62150;43.582;1.456;2022-11-27T20:58:55;11.43;;;5.20;;
17496;SDS011;62150;43.582;1.456;2022-11-27T21:01:24;10.53;;;4.93;;
17496;SDS011;62150;43.582;1.456;2022-11-27T21:03:54;10.10;;;4.80;;
17496;SDS011;62150;43.582;1.456;2022-11-27T21:06:22;10.37;;;4.50;;
17496;SDS011;62150;43.582;1.456;2022-11-27T21:08:51;8.77;;;4.17;;
17496;SDS011;62150;43.582;1.456;2022-11-27T21:11:21;8.37;;;3.93;;
17496;SDS011;62150;43.582;1.456;2022-11-27T21:13:50;8.77;;;3.80;;
17496;SDS011;62150;43.582;1.456;2022-11-27T21:16:20;9.97;;;4.13;;
17496;SDS011;62150;43.582;1.456;2022-11-27T21:18:50;8.40;;;3.70;;
17496;SDS011;62150;43.582;1.456;2022-11-27T21:21:18;8.50;;;3.50;;
17496;SDS011;62150;43.582;1.456;2022-11-27T21:23:46;9.87;;;3.47;;
17496;SDS011;62150;43.582;1.456;2022-11-27T21:26:13;7.13;;;3.17;;
17496;SDS011;62150;43.582;1.456;2022-11-27T21:28:42;8.63;;;3.60;;
17496;SDS011;62150;43.582;1.456;2022-11-27T21:31:11;8.03;;;3.43;;
17496;SDS011;62150;43.582;1.456;2022-11-27T21:33:41;9.90;;;3.77;;
17496;SDS011;62150;43.582;1.456;2022-11-27T21:36:11;7.43;;;3.90;;
17496;SDS011;62150;43.582;1.456;2022-11-27T21:38:39;8.00;;;3.53;;
17496;SDS011;62150;43.582;1.456;2022-11-27T21:41:07;12.50;;;5.33;;
17496;SDS011;62150;43.582;1.456;2022-11-27T21:43:37;8.93;;;4.17;;
17496;SDS011;62150;43.582;1.456;2022-11-27T21:46:07;11.07;;;4.30;;
17496;SDS011;62150;43.582;1.456;2022-11-27T21:48:36;9.93;;;4.23;;
17496;SDS011;62150;43.582;1.456;2022-11-27T21:51:05;8.23;;;3.93;;
17496;SDS011;62150;43.582;1.456;2022-11-27T21:53:36;10.10;;;4.30;;
17496;SDS011;62150;43.582;1.456;2022-11-27T21:56:05;7.77;;;3.93;;
17496;SDS011;62150;43.582;1.456;2022-11-27T21:58:33;11.77;;;4.10;;
17496;SDS011;62150;43.582;1.456;2022-11-27T22:01:01;8.63;;;3.77;;
17496;SDS011;62150;43.582;1.456;2022-11-27T22:03:31;10.20;;;3.97;;
17496;SDS011;62150;43.582;1.456;2022-11-27T22:05:59;8.57;;;3.90;;
17496;SDS011;62150;43.582;1.456;2022-11-27T22:08:30;8.97;;;3.97;;
17496;SDS011;62150;43.582;1.456;2022-11-27T22:10:58;10.07;;;4.27;;
17496;SDS011;62150;43.582;1.456;2022-11-27T22:13:26;9.07;;;3.97;;
17496;SDS011;62150;43.582;1.456;2022-11-27T22:15:54;8.30;;;3.63;;
17496;SDS011;62150;43.582;1.456;2022-11-27T22:18:21;8.23;;;3.40;;
17496;SDS011;62150;43.582;1.456;2022-11-27T22:20:50;7.97;;;3.37;;
17496;SDS011;62150;43.582;1.456;2022-11-27T22:23:18;7.67;;;3.20;;
17496;SDS011;62150;43.582;1.456;2022-11-27T22:25:46;9.23;;;3.30;;